sensor_id;sensor_type;location;lat;lon;timestamp;temperature;humidity
285;DHT22;127;48.770;9.212;2023-04-19T00:00:10;9.80;99.90
285;DHT22;127;48.770;9.212;2023-04-19T00:02:41;9.80;99.90
285;DHT22;127;48.770;9.212;2023-04-19T00:05:14;9.80;99.90
285;DHT22;127;48.770;9.212;2023-04-19T00:07:47;9.80;99.90
285;DHT22;127;48.770;9.212;2023-04-19T00:10:16;9.80;99.90
285;DHT22;127;48.770;9.212;2023-04-19T00:12:44;9.80;99.90
285;DHT22;127;48.770;9.212;2023-04-19T00:15:17;9.80;99.90
285;DHT22;127;48.770;9.212;2023-04-19T00:17:46;9.80;99.90
285;DHT22;127;48.770;9.212;2023-04-19T00:20:15;9.80;99.90
285;DHT22;127;48.770;9.212;2023-04-19T00:22:44;9.80;99.90
285;DHT22;127;48.770;9.212;2023-04-19T00:25:15;9.70;99.90
285;DHT22;127;48.770;9.212;2023-04-19T00:27:45;9.70;99.90
285;DHT22;127;48.770;9.212;2023-04-19T00:30:33;9.70;99.90
285;DHT22;127;48.770;9.212;2023-04-19T00:33:07;9.70;99.90
285;DHT22;127;48.770;9.212;2023-04-19T00:35:37;9.80;99.90
285;DHT22;127;48.770;9.212;2023-04-19T00:38:07;9.80;99.90
285;DHT22;127;48.770;9.212;2023-04-19T00:40:36;9.80;99.90
285;DHT22;127;48.770;9.212;2023-04-19T00:43:04;9.90;99.90
285;DHT22;127;48.770;9.212;2023-04-19T00:45:36;9.80;99.90
285;DHT22;127;48.770;9.212;2023-04-19T00:48:05;9.80;99.90
285;DHT22;127;48.770;9.212;2023-04-19T00:50:37;9.90;99.90
285;DHT22;127;48.770;9.212;2023-04-19T00:53:09;9.90;99.90
285;DHT22;127;48.770;9.212;2023-04-19T00:55:38;9.90;99.90
285;DHT22;127;48.770;9.212;2023-04-19T00:58:08;9.70;99.90
285;DHT22;127;48.770;9.212;2023-04-19T01:00:43;9.80;99.90
285;DHT22;127;48.770;9.212;2023-04-19T01:03:13;9.80;99.90
285;DHT22;127;48.770;9.212;2023-04-19T01:05:42;9.80;99.90
285;DHT22;127;48.770;9.212;2023-04-19T01:08:15;9.70;99.90
285;DHT22;127;48.770;9.212;2023-04-19T01:10:47;9.50;99.90
285;DHT22;127;48.770;9.212;2023-04-19T01:13:18;9.60;99.90
285;DHT22;127;48.770;9.212;2023-04-19T01:16:00;9.70;99.90
285;DHT22;127;48.770;9.212;2023-04-19T01:18:28;9.70;99.90
285;DHT22;127;48.770;9.212;2023-04-19T01:21:02;9.60;99.90
285;DHT22;127;48.770;9.212;2023-04-19T01:23:35;9.70;99.90
285;DHT22;127;48.770;9.212;2023-04-19T01:26:07;9.70;99.90
285;DHT22;127;48.770;9.212;2023-04-19T01:28:36;9.70;99.90
285;DHT22;127;48.770;9.212;2023-04-19T01:31:04;9.80;99.90
285;DHT22;127;48.770;9.212;2023-04-19T01:33:33;9.70;99.90
285;DHT22;127;48.770;9.212;2023-04-19T01:36:08;9.70;99.90
285;DHT22;127;48.770;9.212;2023-04-19T01:38:40;9.80;99.90
285;DHT22;127;48.770;9.212;2023-04-19T01:41:08;9.80;99.90
285;DHT22;127;48.770;9.212;2023-04-19T01:43:39;9.80;99.90
285;DHT22;127;48.770;9.212;2023-04-19T01:46:12;9.60;99.90
285;DHT22;127;48.770;9.212;2023-04-19T01:48:41;9.50;99.90
285;DHT22;127;48.770;9.212;2023-04-19T01:51:13;9.50;99.90
285;DHT22;127;48.770;9.212;2023-04-19T01:53:44;9.40;99.90
285;DHT22;127;48.770;9.212;2023-04-19T01:56:23;9.20;99.90
285;DHT22;127;48.770;9.212;2023-04-19T01:58:51;9.20;99.90
285;DHT22;127;48.770;9.212;2023-04-19T02:01:20;9.30;99.90
285;DHT22;127;48.770;9.212;2023-04-19T02:03:49;9.30;99.90
285;DHT22;127;48.770;9.212;2023-04-19T02:06:22;9.40;99.90
285;DHT22;127;48.770;9.212;2023-04-19T02:08:54;9.40;99.90
285;DHT22;127;48.770;9.212;2023-04-19T02:11:22;9.50;99.90
285;DHT22;127;48.770;9.212;2023-04-19T02:13:53;9.60;99.90
285;DHT22;127;48.770;9.212;2023-04-19T02:16:24;9.60;99.90
285;DHT22;127;48.770;9.212;2023-04-19T02:18:55;9.60;99.90
285;DHT22;127;48.770;9.212;2023-04-19T02:21:25;9.50;99.90
285;DHT22;127;48.770;9.212;2023-04-19T02:23:57;9.50;99.90
285;DHT22;127;48.770;9.212;2023-04-19T02:26:25;9.50;99.90
285;DHT22;127;48.770;9.212;2023-04-19T02:28:54;9.50;99.90
285;DHT22;127;48.770;9.212;2023-04-19T02:31:23;9.50;99.90
285;DHT22;127;48.770;9.212;2023-04-19T02:33:54;9.20;99.90
285;DHT22;127;48.770;9.212;2023-04-19T02:36:23;9.20;99.90
285;DHT22;127;48.770;9.212;2023-04-19T02:38:51;9.20;99.90
285;DHT22;127;48.770;9.212;2023-04-19T02:41:30;9.20;99.90
285;DHT22;127;48.770;9.212;2023-04-19T02:44:01;9.30;99.90
285;DHT22;127;48.770;9.212;2023-04-19T02:46:30;9.40;99.90
285;DHT22;127;48.770;9.212;2023-04-19T02:48:59;9.30;99.90
285;DHT22;127;48.770;9.212;2023-04-19T02:51:28;9.30;99.90
285;DHT22;127;48.770;9.212;2023-04-19T02:53:57;9.30;99.90
285;DHT22;127;48.770;9.212;2023-04-19T02:56:28;9.30;99.90
285;DHT22;127;48.770;9.212;2023-04-19T02:59:00;9.30;99.90
285;DHT22;127;48.770;9.212;2023-04-19T03:01:31;9.40;99.90
285;DHT22;127;48.770;9.212;2023-04-19T03:04:10;9.40;99.90
285;DHT22;127;48.770;9.212;2023-04-19T03:06:43;9.50;99.90
285;DHT22;127;48.770;9.212;2023-04-19T03:09:15;9.50;99.90
285;DHT22;127;48.770;9.212;2023-04-19T03:11:46;9.40;99.90
285;DHT22;127;48.770;9.212;2023-04-19T03:14:21;9.50;99.90
285;DHT22;127;48.770;9.212;2023-04-19T03:16:50;9.50;99.90
285;DHT22;127;48.770;9.212;2023-04-19T03:19:18;9.60;99.90
285;DHT22;127;48.770;9.212;2023-04-19T03:21:50;9.40;99.90
285;DHT22;127;48.770;9.212;2023-04-19T03:24:26;9.30;99.90
285;DHT22;127;48.770;9.212;2023-04-19T03:27:10;9.20;99.90
285;DHT22;127;48.770;9.212;2023-04-19T03:29:41;9.20;99.90
285;DHT22;127;48.770;9.212;2023-04-19T03:32:12;9.30;99.90
285;DHT22;127;48.770;9.212;2023-04-19T03:34:41;9.20;99.90
285;DHT22;127;48.770;9.212;2023-04-19T03:37:10;9.20;99.90
285;DHT22;127;48.770;9.212;2023-04-19T03:39:38;9.20;99.90
285;DHT22;127;48.770;9.212;2023-04-19T03:42:10;9.20;99.90
285;DHT22;127;48.770;9.212;2023-04-19T03:44:40;9.00;99.90
285;DHT22;127;48.770;9.212;2023-04-19T03:47:08;9.00;99.90
285;DHT22;127;48.770;9.212;2023-04-19T03:49:39;9.00;99.90
285;DHT22;127;48.770;9.212;2023-04-19T03:52:07;9.00;99.90
285;DHT22;127;48.770;9.212;2023-04-19T03:54:39;9.00;99.90
285;DHT22;127;48.770;9.212;2023-04-19T03:57:10;9.00;99.90
285;DHT22;127;48.770;9.212;2023-04-19T03:59:40;9.10;99.90
285;DHT22;127;48.770;9.212;2023-04-19T04:02:12;9.00;99.90
285;DHT22;127;48.770;9.212;2023-04-19T04:04:40;9.00;99.90
285;DHT22;127;48.770;9.212;2023-04-19T04:07:11;8.90;99.90
285;DHT22;127;48.770;9.212;2023-04-19T04:09:40;8.80;99.90
285;DHT22;127;48.770;9.212;2023-04-19T04:12:13;8.80;99.90
285;DHT22;127;48.770;9.212;2023-04-19T04:14:44;8.80;99.90
285;DHT22;127;48.770;9.212;2023-04-19T04:17:25;8.70;99.90
285;DHT22;127;48.770;9.212;2023-04-19T04:19:54;8.60;99.90
285;DHT22;127;48.770;9.212;2023-04-19T04:22:22;8.60;99.90
285;DHT22;127;48.770;9.212;2023-04-19T04:24:51;8.50;99.90
285;DHT22;127;48.770;9.212;2023-04-19T04:27:25;8.50;99.90
285;DHT22;127;48.770;9.212;2023-04-19T04:29:54;8.60;99.90
285;DHT22;127;48.770;9.212;2023-04-19T04:32:22;8.50;99.90
285;DHT22;127;48.770;9.212;2023-04-19T04:34:51;8.50;99.90
285;DHT22;127;48.770;9.212;2023-04-19T04:37:20;8.30;99.90
285;DHT22;127;48.770;9.212;2023-04-19T04:39:48;8.40;99.90
285;DHT22;127;48.770;9.212;2023-04-19T04:42:17;8.30;99.90
285;DHT22;127;48.770;9.212;2023-04-19T04:44:51;8.20;99.90
285;DHT22;127;48.770;9.212;2023-04-19T04:47:22;8.20;99.90
285;DHT22;127;48.770;9.212;2023-04-19T04:49:51;8.10;99.90
285;DHT22;127;48.770;9.212;2023-04-19T04:52:24;8.00;99.90
285;DHT22;127;48.770;9.212;2023-04-19T04:54:52;8.10;99.90
285;DHT22;127;48.770;9.212;2023-04-19T04:57:21;8.10;99.90
285;DHT22;127;48.770;9.212;2023-04-19T04:59:54;8.20;99.90
285;DHT22;127;48.770;9.212;2023-04-19T05:02:24;8.20;99.90
285;DHT22;127;48.770;9.212;2023-04-19T05:04:52;8.20;99.90
285;DHT22;127;48.770;9.212;2023-04-19T05:07:29;8.40;99.90
285;DHT22;127;48.770;9.212;2023-04-19T05:09:58;8.40;99.90
285;DHT22;127;48.770;9.212;2023-04-19T05:12:29;8.50;99.90
285;DHT22;127;48.770;9.212;2023-04-19T05:15:02;8.50;99.90
285;DHT22;127;48.770;9.212;2023-04-19T05:17:34;8.50;99.90
285;DHT22;127;48.770;9.212;2023-04-19T05:20:03;8.50;99.90
285;DHT22;127;48.770;9.212;2023-04-19T05:22:35;8.50;99.90
285;DHT22;127;48.770;9.212;2023-04-19T05:25:09;8.40;99.90
285;DHT22;127;48.770;9.212;2023-04-19T05:27:40;8.50;99.90
285;DHT22;127;48.770;9.212;2023-04-19T05:53:59;8.70;99.90
285;DHT22;127;48.770;9.212;2023-04-19T06:00:25;9.00;99.90
285;DHT22;127;48.770;9.212;2023-04-19T06:02:54;9.10;99.90
285;DHT22;127;48.770;9.212;2023-04-19T06:05:29;9.10;99.90
285;DHT22;127;48.770;9.212;2023-04-19T06:11:42;8.80;99.90
285;DHT22;127;48.770;9.212;2023-04-19T06:14:21;8.90;99.90
285;DHT22;127;48.770;9.212;2023-04-19T06:16:54;9.10;99.90
285;DHT22;127;48.770;9.212;2023-04-19T06:19:26;9.20;99.90
285;DHT22;127;48.770;9.212;2023-04-19T06:21:57;9.30;99.90
285;DHT22;127;48.770;9.212;2023-04-19T06:24:26;9.40;99.90
285;DHT22;127;48.770;9.212;2023-04-19T06:26:57;9.60;99.90
285;DHT22;127;48.770;9.212;2023-04-19T06:29:26;9.60;99.90
285;DHT22;127;48.770;9.212;2023-04-19T06:31:56;9.70;99.90
285;DHT22;127;48.770;9.212;2023-04-19T06:34:25;9.70;99.90
285;DHT22;127;48.770;9.212;2023-04-19T06:36:57;9.90;99.90
285;DHT22;127;48.770;9.212;2023-04-19T06:39:44;9.90;99.90
285;DHT22;127;48.770;9.212;2023-04-19T06:42:22;10.00;99.90
285;DHT22;127;48.770;9.212;2023-04-19T06:44:53;10.20;99.90
285;DHT22;127;48.770;9.212;2023-04-19T06:47:28;10.30;99.90
285;DHT22;127;48.770;9.212;2023-04-19T06:50:03;10.30;99.90
285;DHT22;127;48.770;9.212;2023-04-19T06:52:34;10.30;99.90
285;DHT22;127;48.770;9.212;2023-04-19T06:55:05;10.40;99.90
285;DHT22;127;48.770;9.212;2023-04-19T06:57:38;10.40;99.90
285;DHT22;127;48.770;9.212;2023-04-19T07:00:08;10.40;99.90
285;DHT22;127;48.770;9.212;2023-04-19T07:02:39;10.50;99.90
285;DHT22;127;48.770;9.212;2023-04-19T07:05:08;10.50;99.90
285;DHT22;127;48.770;9.212;2023-04-19T07:07:39;10.60;99.90
285;DHT22;127;48.770;9.212;2023-04-19T07:10:08;10.70;99.90
285;DHT22;127;48.770;9.212;2023-04-19T07:12:50;10.70;99.90
285;DHT22;127;48.770;9.212;2023-04-19T07:18:13;10.70;99.90
285;DHT22;127;48.770;9.212;2023-04-19T07:20:51;10.70;99.90
285;DHT22;127;48.770;9.212;2023-04-19T07:23:33;10.70;99.90
285;DHT22;127;48.770;9.212;2023-04-19T07:26:05;10.70;99.90
285;DHT22;127;48.770;9.212;2023-04-19T07:28:54;10.90;99.90
285;DHT22;127;48.770;9.212;2023-04-19T07:31:46;11.10;99.90
285;DHT22;127;48.770;9.212;2023-04-19T07:34:25;11.60;99.90
285;DHT22;127;48.770;9.212;2023-04-19T07:39:08;11.90;99.90
285;DHT22;127;48.770;9.212;2023-04-19T07:40:04;12.00;99.90
285;DHT22;127;48.770;9.212;2023-04-19T07:42:33;12.20;99.90
285;DHT22;127;48.770;9.212;2023-04-19T07:45:05;12.20;99.90
285;DHT22;127;48.770;9.212;2023-04-19T07:47:34;12.30;99.90
285;DHT22;127;48.770;9.212;2023-04-19T07:50:05;12.40;99.90
285;DHT22;127;48.770;9.212;2023-04-19T07:52:39;12.60;99.90
285;DHT22;127;48.770;9.212;2023-04-19T07:55:09;12.80;99.90
285;DHT22;127;48.770;9.212;2023-04-19T07:57:47;12.90;99.90
285;DHT22;127;48.770;9.212;2023-04-19T08:00:21;12.90;99.90
285;DHT22;127;48.770;9.212;2023-04-19T08:02:56;12.90;99.90
285;DHT22;127;48.770;9.212;2023-04-19T08:05:24;13.10;99.90
285;DHT22;127;48.770;9.212;2023-04-19T08:07:54;13.20;99.90
285;DHT22;127;48.770;9.212;2023-04-19T08:10:23;13.00;99.90
285;DHT22;127;48.770;9.212;2023-04-19T08:12:53;13.10;99.90
285;DHT22;127;48.770;9.212;2023-04-19T08:15:24;13.00;99.90
285;DHT22;127;48.770;9.212;2023-04-19T08:17:56;13.20;99.90
285;DHT22;127;48.770;9.212;2023-04-19T08:20:30;13.30;99.90
285;DHT22;127;48.770;9.212;2023-04-19T08:23:13;13.30;99.90
285;DHT22;127;48.770;9.212;2023-04-19T08:25:43;13.50;99.90
285;DHT22;127;48.770;9.212;2023-04-19T08:28:17;13.60;99.90
285;DHT22;127;48.770;9.212;2023-04-19T08:30:53;13.20;99.90
285;DHT22;127;48.770;9.212;2023-04-19T08:33:21;13.60;99.90
285;DHT22;127;48.770;9.212;2023-04-19T08:35:52;14.40;99.90
285;DHT22;127;48.770;9.212;2023-04-19T08:38:22;14.20;99.90
285;DHT22;127;48.770;9.212;2023-04-19T08:40:52;14.00;99.90
285;DHT22;127;48.770;9.212;2023-04-19T08:43:24;13.80;99.90
285;DHT22;127;48.770;9.212;2023-04-19T08:45:58;13.60;99.90
285;DHT22;127;48.770;9.212;2023-04-19T08:48:27;13.80;99.90
285;DHT22;127;48.770;9.212;2023-04-19T08:50:57;13.20;99.90
285;DHT22;127;48.770;9.212;2023-04-19T08:53:29;13.20;99.90
285;DHT22;127;48.770;9.212;2023-04-19T08:56:00;13.10;99.90
285;DHT22;127;48.770;9.212;2023-04-19T08:58:31;13.30;99.90
285;DHT22;127;48.770;9.212;2023-04-19T09:01:03;13.50;99.90
285;DHT22;127;48.770;9.212;2023-04-19T09:03:32;13.70;99.90
285;DHT22;127;48.770;9.212;2023-04-19T09:06:01;13.30;99.90
285;DHT22;127;48.770;9.212;2023-04-19T09:08:30;13.50;99.90
285;DHT22;127;48.770;9.212;2023-04-19T09:11:05;13.60;99.90
285;DHT22;127;48.770;9.212;2023-04-19T09:13:34;14.30;99.90
285;DHT22;127;48.770;9.212;2023-04-19T09:16:22;14.30;99.90
285;DHT22;127;48.770;9.212;2023-04-19T09:18:56;14.10;99.90
285;DHT22;127;48.770;9.212;2023-04-19T09:21:27;14.80;99.90
285;DHT22;127;48.770;9.212;2023-04-19T09:24:03;15.60;99.90
285;DHT22;127;48.770;9.212;2023-04-19T09:26:34;17.60;99.90
285;DHT22;127;48.770;9.212;2023-04-19T09:29:07;17.60;99.90
285;DHT22;127;48.770;9.212;2023-04-19T09:31:55;19.20;99.90
285;DHT22;127;48.770;9.212;2023-04-19T09:34:24;20.40;99.90
285;DHT22;127;48.770;9.212;2023-04-19T09:36:55;19.70;99.90
285;DHT22;127;48.770;9.212;2023-04-19T09:39:36;18.30;99.90
285;DHT22;127;48.770;9.212;2023-04-19T09:42:05;17.80;99.90
285;DHT22;127;48.770;9.212;2023-04-19T09:44:54;17.00;99.90
285;DHT22;127;48.770;9.212;2023-04-19T09:47:28;16.70;99.90
285;DHT22;127;48.770;9.212;2023-04-19T09:50:12;16.70;99.90
285;DHT22;127;48.770;9.212;2023-04-19T09:52:47;16.20;99.90
285;DHT22;127;48.770;9.212;2023-04-19T09:55:15;16.40;99.90
285;DHT22;127;48.770;9.212;2023-04-19T09:57:44;16.40;99.90
285;DHT22;127;48.770;9.212;2023-04-19T10:00:16;16.40;99.90
285;DHT22;127;48.770;9.212;2023-04-19T10:02:50;16.40;99.90
285;DHT22;127;48.770;9.212;2023-04-19T10:05:23;16.60;99.90
285;DHT22;127;48.770;9.212;2023-04-19T10:07:52;16.40;99.90
285;DHT22;127;48.770;9.212;2023-04-19T10:10:24;15.90;99.90
285;DHT22;127;48.770;9.212;2023-04-19T10:12:53;15.50;99.90
285;DHT22;127;48.770;9.212;2023-04-19T10:15:26;15.00;99.90
285;DHT22;127;48.770;9.212;2023-04-19T10:17:59;15.10;99.90
285;DHT22;127;48.770;9.212;2023-04-19T10:20:32;15.00;99.90
285;DHT22;127;48.770;9.212;2023-04-19T10:23:02;15.20;99.90
285;DHT22;127;48.770;9.212;2023-04-19T10:25:37;15.60;99.90
285;DHT22;127;48.770;9.212;2023-04-19T10:28:05;15.80;99.90
285;DHT22;127;48.770;9.212;2023-04-19T10:30:36;15.90;99.90
285;DHT22;127;48.770;9.212;2023-04-19T10:33:30;16.00;99.90
285;DHT22;127;48.770;9.212;2023-04-19T10:36:01;15.70;99.90
285;DHT22;127;48.770;9.212;2023-04-19T10:38:37;16.00;99.90
285;DHT22;127;48.770;9.212;2023-04-19T10:41:09;16.20;99.90
285;DHT22;127;48.770;9.212;2023-04-19T10:43:43;16.10;99.90
285;DHT22;127;48.770;9.212;2023-04-19T10:46:14;16.00;99.90
285;DHT22;127;48.770;9.212;2023-04-19T10:48:57;15.80;99.90
285;DHT22;127;48.770;9.212;2023-04-19T10:51:31;15.40;99.90
285;DHT22;127;48.770;9.212;2023-04-19T10:54:01;14.90;99.90
285;DHT22;127;48.770;9.212;2023-04-19T10:57:25;14.60;99.90
285;DHT22;127;48.770;9.212;2023-04-19T11:00:17;14.20;99.90
285;DHT22;127;48.770;9.212;2023-04-19T11:02:48;14.00;99.90
285;DHT22;127;48.770;9.212;2023-04-19T11:05:39;13.90;99.90
285;DHT22;127;48.770;9.212;2023-04-19T11:08:25;13.70;99.90
285;DHT22;127;48.770;9.212;2023-04-19T11:10:56;13.70;99.90
285;DHT22;127;48.770;9.212;2023-04-19T11:13:31;13.80;99.90
285;DHT22;127;48.770;9.212;2023-04-19T11:16:07;13.70;99.90
285;DHT22;127;48.770;9.212;2023-04-19T11:18:38;13.80;99.90
285;DHT22;127;48.770;9.212;2023-04-19T11:21:21;13.80;99.90
285;DHT22;127;48.770;9.212;2023-04-19T11:24:05;13.70;99.90
285;DHT22;127;48.770;9.212;2023-04-19T11:26:35;13.40;99.90
285;DHT22;127;48.770;9.212;2023-04-19T11:29:05;13.20;99.90
285;DHT22;127;48.770;9.212;2023-04-19T11:31:34;13.10;99.90
285;DHT22;127;48.770;9.212;2023-04-19T11:34:05;12.90;99.90
285;DHT22;127;48.770;9.212;2023-04-19T11:36:46;12.70;99.90
285;DHT22;127;48.770;9.212;2023-04-19T11:39:25;12.50;99.90
285;DHT22;127;48.770;9.212;2023-04-19T11:41:54;12.30;99.90
285;DHT22;127;48.770;9.212;2023-04-19T11:44:28;12.00;99.90
285;DHT22;127;48.770;9.212;2023-04-19T11:46:59;11.90;99.90
285;DHT22;127;48.770;9.212;2023-04-19T11:49:30;11.80;99.90
285;DHT22;127;48.770;9.212;2023-04-19T11:52:04;11.60;99.90
285;DHT22;127;48.770;9.212;2023-04-19T11:54:37;11.40;99.90
285;DHT22;127;48.770;9.212;2023-04-19T11:57:08;11.40;99.90
285;DHT22;127;48.770;9.212;2023-04-19T12:00:04;11.40;99.90
285;DHT22;127;48.770;9.212;2023-04-19T12:02:37;11.40;99.90
285;DHT22;127;48.770;9.212;2023-04-19T12:05:12;11.30;99.90
285;DHT22;127;48.770;9.212;2023-04-19T12:08:02;11.10;99.90
285;DHT22;127;48.770;9.212;2023-04-19T12:10:33;10.90;99.90
285;DHT22;127;48.770;9.212;2023-04-19T12:13:15;10.90;99.90
285;DHT22;127;48.770;9.212;2023-04-19T12:15:45;10.60;99.90
285;DHT22;127;48.770;9.212;2023-04-19T12:18:14;10.40;99.90
285;DHT22;127;48.770;9.212;2023-04-19T12:20:44;10.40;99.90
285;DHT22;127;48.770;9.212;2023-04-19T12:23:17;10.40;99.90
285;DHT22;127;48.770;9.212;2023-04-19T12:25:47;10.40;99.90
285;DHT22;127;48.770;9.212;2023-04-19T12:28:19;10.40;99.90
285;DHT22;127;48.770;9.212;2023-04-19T12:30:50;10.20;99.90
285;DHT22;127;48.770;9.212;2023-04-19T12:33:18;10.20;99.90
285;DHT22;127;48.770;9.212;2023-04-19T12:35:47;10.10;99.90
285;DHT22;127;48.770;9.212;2023-04-19T12:38:22;10.00;99.90
285;DHT22;127;48.770;9.212;2023-04-19T12:40:51;10.00;99.90
285;DHT22;127;48.770;9.212;2023-04-19T12:43:22;9.90;99.90
285;DHT22;127;48.770;9.212;2023-04-19T12:45:53;9.70;99.90
285;DHT22;127;48.770;9.212;2023-04-19T12:48:23;9.70;99.90
285;DHT22;127;48.770;9.212;2023-04-19T12:50:51;9.70;99.90
285;DHT22;127;48.770;9.212;2023-04-19T12:53:23;9.70;99.90
285;DHT22;127;48.770;9.212;2023-04-19T12:55:52;9.80;99.90
285;DHT22;127;48.770;9.212;2023-04-19T12:58:24;9.70;99.90
285;DHT22;127;48.770;9.212;2023-04-19T13:00:54;9.70;99.90
285;DHT22;127;48.770;9.212;2023-04-19T13:03:26;9.50;99.90
285;DHT22;127;48.770;9.212;2023-04-19T13:05:59;9.60;99.90
285;DHT22;127;48.770;9.212;2023-04-19T13:08:31;9.60;99.90
285;DHT22;127;48.770;9.212;2023-04-19T13:11:03;9.60;99.90
285;DHT22;127;48.770;9.212;2023-04-19T13:13:32;9.50;99.90
285;DHT22;127;48.770;9.212;2023-04-19T13:16:01;9.40;99.90
285;DHT22;127;48.770;9.212;2023-04-19T13:18:30;9.40;99.90
285;DHT22;127;48.770;9.212;2023-04-19T13:21:04;9.40;99.90
285;DHT22;127;48.770;9.212;2023-04-19T13:23:35;9.30;99.90
285;DHT22;127;48.770;9.212;2023-04-19T13:26:04;9.30;99.90
285;DHT22;127;48.770;9.212;2023-04-19T13:28:33;9.20;99.90
285;DHT22;127;48.770;9.212;2023-04-19T13:31:03;9.30;99.90
285;DHT22;127;48.770;9.212;2023-04-19T13:33:35;9.40;99.90
285;DHT22;127;48.770;9.212;2023-04-19T13:36:12;9.30;99.90
285;DHT22;127;48.770;9.212;2023-04-19T13:38:46;9.50;99.90
285;DHT22;127;48.770;9.212;2023-04-19T13:41:17;9.60;99.90
285;DHT22;127;48.770;9.212;2023-04-19T13:43:46;9.70;99.90
285;DHT22;127;48.770;9.212;2023-04-19T13:46:15;9.80;99.90
285;DHT22;127;48.770;9.212;2023-04-19T13:48:43;9.70;99.90
285;DHT22;127;48.770;9.212;2023-04-19T13:51:12;9.80;99.90
285;DHT22;127;48.770;9.212;2023-04-19T13:53:41;10.00;99.90
285;DHT22;127;48.770;9.212;2023-04-19T13:56:12;10.20;99.90
285;DHT22;127;48.770;9.212;2023-04-19T13:58:41;10.10;99.90
285;DHT22;127;48.770;9.212;2023-04-19T14:01:11;10.10;99.90
285;DHT22;127;48.770;9.212;2023-04-19T14:03:40;9.90;99.90
285;DHT22;127;48.770;9.212;2023-04-19T14:06:22;9.90;99.90
285;DHT22;127;48.770;9.212;2023-04-19T14:08:51;10.10;99.90
285;DHT22;127;48.770;9.212;2023-04-19T14:11:23;10.30;99.90
285;DHT22;127;48.770;9.212;2023-04-19T14:13:52;10.50;99.90
285;DHT22;127;48.770;9.212;2023-04-19T14:16:21;10.50;99.90
285;DHT22;127;48.770;9.212;2023-04-19T14:18:50;10.80;99.90
285;DHT22;127;48.770;9.212;2023-04-19T14:21:19;11.00;99.90
285;DHT22;127;48.770;9.212;2023-04-19T14:23:47;10.90;99.90
285;DHT22;127;48.770;9.212;2023-04-19T14:26:16;11.20;99.90
285;DHT22;127;48.770;9.212;2023-04-19T14:28:54;11.50;99.90
285;DHT22;127;48.770;9.212;2023-04-19T14:31:22;12.00;99.90
285;DHT22;127;48.770;9.212;2023-04-19T14:33:51;12.50;99.90
285;DHT22;127;48.770;9.212;2023-04-19T14:36:20;13.00;99.90
285;DHT22;127;48.770;9.212;2023-04-19T14:38:48;13.10;99.90
285;DHT22;127;48.770;9.212;2023-04-19T14:41:18;12.20;99.90
285;DHT22;127;48.770;9.212;2023-04-19T14:43:50;11.80;99.90
285;DHT22;127;48.770;9.212;2023-04-19T14:46:23;11.90;99.90
285;DHT22;127;48.770;9.212;2023-04-19T14:48:57;11.80;99.90
285;DHT22;127;48.770;9.212;2023-04-19T14:51:28;12.00;99.90
285;DHT22;127;48.770;9.212;2023-04-19T14:53:59;11.60;99.90
285;DHT22;127;48.770;9.212;2023-04-19T14:56:30;11.20;99.90
285;DHT22;127;48.770;9.212;2023-04-19T14:59:03;11.10;99.90
285;DHT22;127;48.770;9.212;2023-04-19T15:01:35;10.90;99.90
285;DHT22;127;48.770;9.212;2023-04-19T15:04:04;11.00;99.90
285;DHT22;127;48.770;9.212;2023-04-19T15:06:33;11.00;99.90
285;DHT22;127;48.770;9.212;2023-04-19T15:09:05;10.70;99.90
285;DHT22;127;48.770;9.212;2023-04-19T15:11:40;10.60;99.90
285;DHT22;127;48.770;9.212;2023-04-19T15:14:11;10.70;99.90
285;DHT22;127;48.770;9.212;2023-04-19T15:16:42;10.90;99.90
285;DHT22;127;48.770;9.212;2023-04-19T15:19:12;11.00;99.90
285;DHT22;127;48.770;9.212;2023-04-19T15:21:41;11.10;99.90
285;DHT22;127;48.770;9.212;2023-04-19T15:24:10;11.00;99.90
285;DHT22;127;48.770;9.212;2023-04-19T15:26:42;11.30;99.90
285;DHT22;127;48.770;9.212;2023-04-19T15:29:13;11.60;99.90
285;DHT22;127;48.770;9.212;2023-04-19T15:31:42;11.80;99.90
285;DHT22;127;48.770;9.212;2023-04-19T15:34:11;12.00;99.90
285;DHT22;127;48.770;9.212;2023-04-19T15:36:43;12.10;99.90
285;DHT22;127;48.770;9.212;2023-04-19T15:39:15;11.70;99.90
285;DHT22;127;48.770;9.212;2023-04-19T15:41:44;11.90;99.90
285;DHT22;127;48.770;9.212;2023-04-19T15:44:15;12.30;99.90
285;DHT22;127;48.770;9.212;2023-04-19T15:46:44;12.30;99.90
285;DHT22;127;48.770;9.212;2023-04-19T15:49:13;12.50;99.90
285;DHT22;127;48.770;9.212;2023-04-19T15:51:42;13.10;99.90
285;DHT22;127;48.770;9.212;2023-04-19T15:54:13;13.90;99.90
285;DHT22;127;48.770;9.212;2023-04-19T15:56:42;13.90;99.90
285;DHT22;127;48.770;9.212;2023-04-19T16:01:58;14.40;99.90
285;DHT22;127;48.770;9.212;2023-04-19T16:04:34;14.70;99.90
285;DHT22;127;48.770;9.212;2023-04-19T16:07:05;14.60;99.90
285;DHT22;127;48.770;9.212;2023-04-19T16:09:34;14.80;99.90
285;DHT22;127;48.770;9.212;2023-04-19T16:15:24;14.80;99.90
285;DHT22;127;48.770;9.212;2023-04-19T16:17:56;14.80;99.90
285;DHT22;127;48.770;9.212;2023-04-19T16:20:25;13.70;99.90
285;DHT22;127;48.770;9.212;2023-04-19T16:22:53;13.90;99.90
285;DHT22;127;48.770;9.212;2023-04-19T16:25:22;13.40;99.90
285;DHT22;127;48.770;9.212;2023-04-19T16:27:53;13.40;99.90
285;DHT22;127;48.770;9.212;2023-04-19T16:33:38;13.80;99.90
285;DHT22;127;48.770;9.212;2023-04-19T16:36:24;13.70;99.90
285;DHT22;127;48.770;9.212;2023-04-19T16:38:53;13.70;99.90
285;DHT22;127;48.770;9.212;2023-04-19T16:41:23;14.00;99.90
285;DHT22;127;48.770;9.212;2023-04-19T16:43:52;13.80;99.90
285;DHT22;127;48.770;9.212;2023-04-19T16:46:22;14.10;99.90
285;DHT22;127;48.770;9.212;2023-04-19T16:49:01;14.20;99.90
285;DHT22;127;48.770;9.212;2023-04-19T16:51:39;14.50;99.90
285;DHT22;127;48.770;9.212;2023-04-19T16:54:13;14.90;99.90
285;DHT22;127;48.770;9.212;2023-04-19T16:56:44;15.00;99.90
285;DHT22;127;48.770;9.212;2023-04-19T16:59:15;14.80;99.90
285;DHT22;127;48.770;9.212;2023-04-19T17:01:48;14.10;99.90
285;DHT22;127;48.770;9.212;2023-04-19T17:04:20;14.20;99.90
285;DHT22;127;48.770;9.212;2023-04-19T17:06:51;13.80;99.90
285;DHT22;127;48.770;9.212;2023-04-19T17:09:20;13.00;99.90
285;DHT22;127;48.770;9.212;2023-04-19T17:11:49;12.80;99.90
285;DHT22;127;48.770;9.212;2023-04-19T17:14:29;12.80;99.90
285;DHT22;127;48.770;9.212;2023-04-19T17:17:00;12.90;99.90
285;DHT22;127;48.770;9.212;2023-04-19T17:19:35;13.10;99.90
285;DHT22;127;48.770;9.212;2023-04-19T17:22:04;12.30;99.90
285;DHT22;127;48.770;9.212;2023-04-19T17:24:35;12.50;99.90
285;DHT22;127;48.770;9.212;2023-04-19T17:27:03;12.00;99.90
285;DHT22;127;48.770;9.212;2023-04-19T17:29:35;12.00;99.90
285;DHT22;127;48.770;9.212;2023-04-19T17:32:05;12.20;99.90
285;DHT22;127;48.770;9.212;2023-04-19T17:34:40;12.20;99.90
285;DHT22;127;48.770;9.212;2023-04-19T17:37:09;12.30;99.90
285;DHT22;127;48.770;9.212;2023-04-19T17:39:38;11.90;99.90
285;DHT22;127;48.770;9.212;2023-04-19T17:42:22;11.90;99.90
285;DHT22;127;48.770;9.212;2023-04-19T17:44:55;11.90;99.90
285;DHT22;127;48.770;9.212;2023-04-19T17:47:25;11.50;99.90
285;DHT22;127;48.770;9.212;2023-04-19T17:50:04;11.20;99.90
285;DHT22;127;48.770;9.212;2023-04-19T17:52:39;11.00;99.90
285;DHT22;127;48.770;9.212;2023-04-19T17:55:10;10.70;99.90
285;DHT22;127;48.770;9.212;2023-04-19T17:57:39;10.50;99.90